sensor_id;sensor_type;location;lat;lon;timestamp;pressure;altitude;pressure_sealevel;temperature;humidity
43147;BME280;28752;48.266;7.402;2022-07-06T00:01:21;100002.19;;;21.83;37.02
43147;BME280;28752;48.266;7.402;2022-07-06T00:03:47;100009.84;;;21.80;37.09
43147;BME280;28752;48.266;7.402;2022-07-06T00:06:12;100001.78;;;21.87;36.71
43147;BME280;28752;48.266;7.402;2022-07-06T00:08:38;100004.44;;;21.80;37.33
43147;BME280;28752;48.266;7.402;2022-07-06T00:11:04;100004.44;;;21.73;36.75
43147;BME280;28752;48.266;7.402;2022-07-06T00:13:30;99995.97;;;21.76;36.85
43147;BME280;28752;48.266;7.402;2022-07-06T00:15:55;99997.00;;;21.89;36.52
43147;BME280;28752;48.266;7.402;2022-07-06T00:18:20;99977.28;;;21.68;36.97
43147;BME280;28752;48.266;7.402;2022-07-06T00:20:46;100013.38;;;21.87;36.84
43147;BME280;28752;48.266;7.402;2022-07-06T00:23:11;100010.91;;;21.86;37.21
43147;BME280;28752;48.266;7.402;2022-07-06T00:25:37;100017.91;;;21.67;37.20
43147;BME280;28752;48.266;7.402;2022-07-06T00:28:03;100006.84;;;21.48;37.91
43147;BME280;28752;48.266;7.402;2022-07-06T00:30:29;100024.03;;;21.40;37.76
43147;BME280;28752;48.266;7.402;2022-07-06T00:32:54;100020.72;;;21.45;38.21
43147;BME280;28752;48.266;7.402;2022-07-06T00:35:20;100029.44;;;21.47;37.80
43147;BME280;28752;48.266;7.402;2022-07-06T00:37:45;100033.16;;;21.46;38.06
43147;BME280;28752;48.266;7.402;2022-07-06T00:40:11;100034.53;;;21.28;38.42
43147;BME280;28752;48.266;7.402;2022-07-06T00:42:43;100034.53;;;21.22;38.62
43147;BME280;28752;48.266;7.402;2022-07-06T00:45:10;100024.97;;;21.12;39.07
43147;BME280;28752;48.266;7.402;2022-07-06T00:47:36;100033.44;;;21.09;38.74
43147;BME280;28752;48.266;7.402;2022-07-06T00:50:03;100025.50;;;21.01;39.11
43147;BME280;28752;48.266;7.402;2022-07-06T00:53:00;100041.91;;;21.06;39.39
43147;BME280;28752;48.266;7.402;2022-07-06T00:55:36;100033.47;;;21.16;39.20
43147;BME280;28752;48.266;7.402;2022-07-06T00:58:04;100039.22;;;21.06;39.25
43147;BME280;28752;48.266;7.402;2022-07-06T01:00:31;100036.72;;;21.05;39.42
43147;BME280;28752;48.266;7.402;2022-07-06T01:02:57;100032.56;;;21.02;39.72
43147;BME280;28752;48.266;7.402;2022-07-06T01:05:23;100026.91;;;20.90;40.30
43147;BME280;28752;48.266;7.402;2022-07-06T01:07:50;100034.19;;;20.97;39.54
43147;BME280;28752;48.266;7.402;2022-07-06T01:10:17;100027.78;;;20.98;39.82
43147;BME280;28752;48.266;7.402;2022-07-06T01:12:44;100030.47;;;20.98;39.62
43147;BME280;28752;48.266;7.402;2022-07-06T01:15:14;100024.91;;;20.99;39.82
43147;BME280;28752;48.266;7.402;2022-07-06T01:17:40;100029.06;;;21.02;39.58
43147;BME280;28752;48.266;7.402;2022-07-06T01:20:26;100019.84;;;20.83;40.00
43147;BME280;28752;48.266;7.402;2022-07-06T01:22:52;100018.72;;;20.70;40.47
43147;BME280;28752;48.266;7.402;2022-07-06T01:25:19;100014.22;;;20.77;40.26
43147;BME280;28752;48.266;7.402;2022-07-06T01:27:45;100009.84;;;20.70;40.70
43147;BME280;28752;48.266;7.402;2022-07-06T01:30:13;100004.38;;;20.63;40.78
43147;BME280;28752;48.266;7.402;2022-07-06T01:32:39;100018.72;;;20.70;40.79
43147;BME280;28752;48.266;7.402;2022-07-06T01:35:06;100012.06;;;20.66;40.96
43147;BME280;28752;48.266;7.402;2022-07-06T01:37:33;100010.53;;;20.79;40.41
43147;BME280;28752;48.266;7.402;2022-07-06T01:39:59;100012.06;;;20.66;40.70
43147;BME280;28752;48.266;7.402;2022-07-06T01:42:25;99995.19;;;20.51;41.00
43147;BME280;28752;48.266;7.402;2022-07-06T01:44:50;100003.13;;;20.59;40.99
43147;BME280;28752;48.266;7.402;2022-07-06T01:47:16;99984.41;;;20.44;41.14
43147;BME280;28752;48.266;7.402;2022-07-06T01:49:41;99999.88;;;20.42;40.97
43147;BME280;28752;48.266;7.402;2022-07-06T01:52:07;99981.22;;;20.34;41.12
43147;BME280;28752;48.266;7.402;2022-07-06T01:54:32;99990.28;;;20.54;40.87
43147;BME280;28752;48.266;7.402;2022-07-06T01:56:58;100004.84;;;20.38;41.08
43147;BME280;28752;48.266;7.402;2022-07-06T01:59:23;100001.31;;;20.38;41.38
43147;BME280;28752;48.266;7.402;2022-07-06T02:01:50;99997.41;;;20.12;42.10
43147;BME280;28752;48.266;7.402;2022-07-06T02:04:15;99995.75;;;20.11;42.05
43147;BME280;28752;48.266;7.402;2022-07-06T02:06:41;99977.97;;;19.88;42.36
43147;BME280;28752;48.266;7.402;2022-07-06T02:09:07;99999.31;;;20.18;42.06
43147;BME280;28752;48.266;7.402;2022-07-06T02:11:32;100005.38;;;20.27;41.39
43147;BME280;28752;48.266;7.402;2022-07-06T02:13:57;100008.59;;;20.16;41.66
43147;BME280;28752;48.266;7.402;2022-07-06T02:16:23;100006.69;;;20.10;41.86
43147;BME280;28752;48.266;7.402;2022-07-06T02:18:48;100006.31;;;19.91;42.30
43147;BME280;28752;48.266;7.402;2022-07-06T02:21:13;100017.00;;;20.06;42.07
43147;BME280;28752;48.266;7.402;2022-07-06T02:23:39;100007.03;;;20.00;42.25
43147;BME280;28752;48.266;7.402;2022-07-06T02:26:04;100004.03;;;19.88;42.78
43147;BME280;28752;48.266;7.402;2022-07-06T02:28:30;100019.72;;;19.84;43.03
43147;BME280;28752;48.266;7.402;2022-07-06T02:30:55;100012.06;;;19.66;43.29
43147;BME280;28752;48.266;7.402;2022-07-06T02:33:21;100013.59;;;19.76;42.97
43147;BME280;28752;48.266;7.402;2022-07-06T02:35:46;100009.09;;;19.61;43.21
43147;BME280;28752;48.266;7.402;2022-07-06T02:38:12;100039.50;;;19.62;43.84
43147;BME280;28752;48.266;7.402;2022-07-06T02:40:38;100034.75;;;19.27;45.74
43147;BME280;28752;48.266;7.402;2022-07-06T02:43:03;100019.53;;;18.98;46.73
43147;BME280;28752;48.266;7.402;2022-07-06T02:45:30;100025.88;;;18.82;47.29
43147;BME280;28752;48.266;7.402;2022-07-06T02:47:56;100035.25;;;18.86;47.28
43147;BME280;28752;48.266;7.402;2022-07-06T02:50:22;100035.59;;;18.68;47.59
43147;BME280;28752;48.266;7.402;2022-07-06T02:52:48;100040.16;;;18.44;48.32
43147;BME280;28752;48.266;7.402;2022-07-06T02:55:13;100040.72;;;18.40;48.29
43147;BME280;28752;48.266;7.402;2022-07-06T02:57:38;100051.34;;;18.33;48.62
43147;BME280;28752;48.266;7.402;2022-07-06T03:00:05;100048.63;;;18.18;49.73
43147;BME280;28752;48.266;7.402;2022-07-06T03:02:30;100055.94;;;18.24;49.55
43147;BME280;28752;48.266;7.402;2022-07-06T03:04:56;100046.72;;;18.27;48.92
43147;BME280;28752;48.266;7.402;2022-07-06T03:07:22;100052.03;;;18.12;49.71
43147;BME280;28752;48.266;7.402;2022-07-06T03:09:47;100053.19;;;18.09;50.43
43147;BME280;28752;48.266;7.402;2022-07-06T03:12:12;100043.81;;;17.90;50.70
43147;BME280;28752;48.266;7.402;2022-07-06T03:14:38;100060.94;;;17.81;51.17
43147;BME280;28752;48.266;7.402;2022-07-06T03:17:03;100063.47;;;17.74;51.31
43147;BME280;28752;48.266;7.402;2022-07-06T03:19:29;100061.03;;;17.65;51.38
43147;BME280;28752;48.266;7.402;2022-07-06T03:21:54;100066.84;;;17.68;51.92
43147;BME280;28752;48.266;7.402;2022-07-06T03:24:19;100044.34;;;17.54;52.07
43147;BME280;28752;48.266;7.402;2022-07-06T03:26:45;100059.88;;;17.59;52.13
43147;BME280;28752;48.266;7.402;2022-07-06T03:29:10;100053.72;;;17.50;52.28
43147;BME280;28752;48.266;7.402;2022-07-06T03:31:35;100056.56;;;17.57;52.56
43147;BME280;28752;48.266;7.402;2022-07-06T03:34:01;100031.03;;;17.38;52.29
43147;BME280;28752;48.266;7.402;2022-07-06T03:36:26;100032.91;;;17.37;52.56
43147;BME280;28752;48.266;7.402;2022-07-06T03:38:52;100042.38;;;17.48;51.95
43147;BME280;28752;48.266;7.402;2022-07-06T03:41:17;100059.06;;;17.58;52.29
43147;BME280;28752;48.266;7.402;2022-07-06T03:43:43;100064.44;;;17.82;51.16
43147;BME280;28752;48.266;7.402;2022-07-06T03:46:08;100061.13;;;17.71;51.11
43147;BME280;28752;48.266;7.402;2022-07-06T03:48:34;100065.97;;;17.76;50.89
43147;BME280;28752;48.266;7.402;2022-07-06T03:50:59;100065.97;;;17.76;50.87
43147;BME280;28752;48.266;7.402;2022-07-06T03:53:24;100068.28;;;17.79;50.82
43147;BME280;28752;48.266;7.402;2022-07-06T03:55:50;100071.44;;;17.91;49.97
43147;BME280;28752;48.266;7.402;2022-07-06T03:58:34;100073.56;;;17.96;49.83
43147;BME280;28752;48.266;7.402;2022-07-06T04:00:59;100068.50;;;18.24;48.98
43147;BME280;28752;48.266;7.402;2022-07-06T04:03:25;100063.56;;;18.36;48.43
43147;BME280;28752;48.266;7.402;2022-07-06T04:05:50;100069.66;;;18.29;48.54
43147;BME280;28752;48.266;7.402;2022-07-06T04:08:16;100054.31;;;18.38;48.31
43147;BME280;28752;48.266;7.402;2022-07-06T04:10:41;100063.88;;;18.56;47.72
43147;BME280;28752;48.266;7.402;2022-07-06T04:13:06;100076.81;;;18.67;47.47
43147;BME280;28752;48.266;7.402;2022-07-06T04:15:32;100059.25;;;18.64;47.72
43147;BME280;28752;48.266;7.402;2022-07-06T04:17:57;100050.56;;;18.77;47.08
43147;BME280;28752;48.266;7.402;2022-07-06T04:20:24;100056.03;;;18.84;47.39
43147;BME280;28752;48.266;7.402;2022-07-06T04:22:51;100066.22;;;19.04;47.07
43147;BME280;28752;48.266;7.402;2022-07-06T04:25:17;100070.22;;;19.08;46.87
43147;BME280;28752;48.266;7.402;2022-07-06T04:27:42;100074.72;;;19.37;46.28
43147;BME280;28752;48.266;7.402;2022-07-06T04:30:09;100076.28;;;19.46;46.15
43147;BME280;28752;48.266;7.402;2022-07-06T04:32:34;100075.38;;;19.76;45.56
43147;BME280;28752;48.266;7.402;2022-07-06T04:35:01;100071.84;;;19.90;45.10
43147;BME280;28752;48.266;7.402;2022-07-06T04:37:26;100074.59;;;20.18;44.64
43147;BME280;28752;48.266;7.402;2022-07-06T04:39:51;100067.88;;;20.57;43.44
43147;BME280;28752;48.266;7.402;2022-07-06T04:42:17;100078.81;;;21.12;42.09
43147;BME280;28752;48.266;7.402;2022-07-06T04:44:42;100074.66;;;21.52;41.78
43147;BME280;28752;48.266;7.402;2022-07-06T04:47:08;100080.97;;;21.86;40.76
43147;BME280;28752;48.266;7.402;2022-07-06T04:49:33;100084.13;;;22.03;40.09
43147;BME280;28752;48.266;7.402;2022-07-06T04:51:59;100079.97;;;22.13;39.95
43147;BME280;28752;48.266;7.402;2022-07-06T04:54:24;100083.28;;;22.09;40.30
43147;BME280;28752;48.266;7.402;2022-07-06T04:56:50;100086.19;;;22.00;40.58
43147;BME280;28752;48.266;7.402;2022-07-06T04:59:15;100085.50;;;21.72;41.19
43147;BME280;28752;48.266;7.402;2022-07-06T05:01:41;100096.03;;;21.60;41.82
43147;BME280;28752;48.266;7.402;2022-07-06T05:04:07;100093.25;;;21.46;41.91
43147;BME280;28752;48.266;7.402;2022-07-06T05:06:33;100091.53;;;21.32;41.84
43147;BME280;28752;48.266;7.402;2022-07-06T05:08:59;100101.13;;;21.48;41.87
43147;BME280;28752;48.266;7.402;2022-07-06T05:11:26;100107.41;;;21.55;41.76
43147;BME280;28752;48.266;7.402;2022-07-06T05:13:52;100098.09;;;21.58;41.51
43147;BME280;28752;48.266;7.402;2022-07-06T05:16:17;100098.53;;;21.61;41.51
43147;BME280;28752;48.266;7.402;2022-07-06T05:18:43;100071.16;;;21.58;40.79
43147;BME280;28752;48.266;7.402;2022-07-06T05:21:08;100090.50;;;21.81;41.00
43147;BME280;28752;48.266;7.402;2022-07-06T05:23:33;100065.78;;;21.64;41.22
43147;BME280;28752;48.266;7.402;2022-07-06T05:25:59;100089.88;;;21.79;41.08
43147;BME280;28752;48.266;7.402;2022-07-06T05:28:24;100098.97;;;21.78;41.23
43147;BME280;28752;48.266;7.402;2022-07-06T05:30:50;100101.88;;;21.77;41.61
43147;BME280;28752;48.266;7.402;2022-07-06T05:33:15;100102.94;;;21.82;41.14
43147;BME280;28752;48.266;7.402;2022-07-06T05:35:40;100099.63;;;21.80;41.43
43147;BME280;28752;48.266;7.402;2022-07-06T05:38:06;100106.66;;;21.81;41.79
43147;BME280;28752;48.266;7.402;2022-07-06T05:40:31;100109.16;;;21.76;41.40
43147;BME280;28752;48.266;7.402;2022-07-06T05:42:57;100105.44;;;21.91;41.21
43147;BME280;28752;48.266;7.402;2022-07-06T05:45:22;100102.53;;;21.86;40.63
43147;BME280;28752;48.266;7.402;2022-07-06T05:47:48;100102.34;;;21.87;40.49
43147;BME280;28752;48.266;7.402;2022-07-06T05:50:32;100098.06;;;22.26;40.41
43147;BME280;28752;48.266;7.402;2022-07-06T05:53:00;100100.88;;;23.32;38.76
43147;BME280;28752;48.266;7.402;2022-07-06T05:55:26;100102.41;;;24.87;36.22
43147;BME280;28752;48.266;7.402;2022-07-06T05:57:53;100105.69;;;25.82;34.69
43147;BME280;28752;48.266;7.402;2022-07-06T06:00:22;100104.13;;;26.94;32.28
43147;BME280;28752;48.266;7.402;2022-07-06T06:02:48;100104.94;;;27.99;30.51
43147;BME280;28752;48.266;7.402;2022-07-06T06:05:14;100101.06;;;29.19;29.45
43147;BME280;28752;48.266;7.402;2022-07-06T06:07:40;100109.72;;;29.77;28.11
43147;BME280;28752;48.266;7.402;2022-07-06T06:10:06;100115.56;;;30.46;27.08
43147;BME280;28752;48.266;7.402;2022-07-06T06:12:32;100108.16;;;31.32;26.58
43147;BME280;28752;48.266;7.402;2022-07-06T06:14:57;100109.78;;;32.17;25.72
43147;BME280;28752;48.266;7.402;2022-07-06T06:17:23;100108.09;;;32.83;24.94
43147;BME280;28752;48.266;7.402;2022-07-06T06:19:48;100110.59;;;32.64;24.62
43147;BME280;28752;48.266;7.402;2022-07-06T06:22:13;100105.69;;;32.30;25.14
43147;BME280;28752;48.266;7.402;2022-07-06T06:24:39;100110.28;;;33.01;24.56
43147;BME280;28752;48.266;7.402;2022-07-06T06:27:04;100113.44;;;33.39;24.39
43147;BME280;28752;48.266;7.402;2022-07-06T06:29:30;100093.06;;;33.56;23.88
43147;BME280;28752;48.266;7.402;2022-07-06T06:31:55;100103.81;;;34.31;23.11
43147;BME280;28752;48.266;7.402;2022-07-06T06:34:21;100109.78;;;34.68;22.62
43147;BME280;28752;48.266;7.402;2022-07-06T06:36:46;100115.75;;;34.16;23.03
43147;BME280;28752;48.266;7.402;2022-07-06T06:39:11;100112.97;;;34.85;23.20
43147;BME280;28752;48.266;7.402;2022-07-06T06:41:37;100114.00;;;34.31;22.81
43147;BME280;28752;48.266;7.402;2022-07-06T06:44:02;100115.81;;;32.19;24.85
43147;BME280;28752;48.266;7.402;2022-07-06T06:46:28;100115.28;;;32.37;24.95
43147;BME280;28752;48.266;7.402;2022-07-06T06:48:53;100108.00;;;31.59;25.83
43147;BME280;28752;48.266;7.402;2022-07-06T06:51:19;100112.34;;;31.45;25.93
43147;BME280;28752;48.266;7.402;2022-07-06T06:53:46;100106.44;;;31.74;25.53
43147;BME280;28752;48.266;7.402;2022-07-06T06:56:11;100114.06;;;31.71;25.54
43147;BME280;28752;48.266;7.402;2022-07-06T06:58:37;100113.50;;;31.59;26.05
43147;BME280;28752;48.266;7.402;2022-07-06T07:01:02;100112.41;;;31.65;26.17
43147;BME280;28752;48.266;7.402;2022-07-06T07:03:28;100115.69;;;31.57;26.03
43147;BME280;28752;48.266;7.402;2022-07-06T07:05:53;100116.59;;;31.20;26.31
43147;BME280;28752;48.266;7.402;2022-07-06T07:08:18;100112.75;;;31.16;26.76
43147;BME280;28752;48.266;7.402;2022-07-06T07:10:44;100117.97;;;31.17;26.23
43147;BME280;28752;48.266;7.402;2022-07-06T07:13:09;100121.84;;;31.27;26.50
43147;BME280;28752;48.266;7.402;2022-07-06T07:15:35;100123.91;;;31.62;26.25
43147;BME280;28752;48.266;7.402;2022-07-06T07:18:00;100108.88;;;31.85;25.92
43147;BME280;28752;48.266;7.402;2022-07-06T07:20:26;100129.22;;;32.46;24.86
43147;BME280;28752;48.266;7.402;2022-07-06T07:22:51;100118.50;;;31.93;25.22
43147;BME280;28752;48.266;7.402;2022-07-06T07:25:17;100119.81;;;31.65;25.24
43147;BME280;28752;48.266;7.402;2022-07-06T07:27:42;100114.38;;;31.85;25.15
43147;BME280;28752;48.266;7.402;2022-07-06T07:30:08;100118.28;;;32.26;24.47
43147;BME280;28752;48.266;7.402;2022-07-06T07:32:34;100099.31;;;31.83;25.57
43147;BME280;28752;48.266;7.402;2022-07-06T07:34:59;100113.34;;;32.69;24.73
43147;BME280;28752;48.266;7.402;2022-07-06T07:37:24;100110.88;;;32.57;24.31
43147;BME280;28752;48.266;7.402;2022-07-06T07:39:50;100124.81;;;32.09;25.76
43147;BME280;28752;48.266;7.402;2022-07-06T07:42:15;100122.31;;;31.87;26.06
43147;BME280;28752;48.266;7.402;2022-07-06T07:44:41;100113.09;;;32.65;24.93
43147;BME280;28752;48.266;7.402;2022-07-06T07:47:06;100125.38;;;32.01;25.51
43147;BME280;28752;48.266;7.402;2022-07-06T07:49:32;100118.50;;;32.03;25.77
43147;BME280;28752;48.266;7.402;2022-07-06T07:51:57;100112.84;;;30.89;27.22
43147;BME280;28752;48.266;7.402;2022-07-06T07:54:23;100104.19;;;31.60;26.75
43147;BME280;28752;48.266;7.402;2022-07-06T07:56:48;100112.53;;;30.80;27.53
43147;BME280;28752;48.266;7.402;2022-07-06T07:59:14;100118.88;;;30.53;27.40
43147;BME280;28752;48.266;7.402;2022-07-06T08:01:39;100111.06;;;29.80;28.76
43147;BME280;28752;48.266;7.402;2022-07-06T08:04:05;100120.22;;;30.18;28.12
43147;BME280;28752;48.266;7.402;2022-07-06T08:06:30;100120.06;;;30.03;28.35
43147;BME280;28752;48.266;7.402;2022-07-06T08:08:56;100110.19;;;30.99;27.28
43147;BME280;28752;48.266;7.402;2022-07-06T08:11:21;100119.16;;;31.47;26.39
43147;BME280;28752;48.266;7.402;2022-07-06T08:13:46;100121.91;;;30.24;27.62
43147;BME280;28752;48.266;7.402;2022-07-06T08:16:12;100106.06;;;29.94;28.12
43147;BME280;28752;48.266;7.402;2022-07-06T08:18:37;100128.53;;;30.34;28.49
43147;BME280;28752;48.266;7.402;2022-07-06T08:21:03;100123.56;;;29.98;28.69
43147;BME280;28752;48.266;7.402;2022-07-06T08:23:29;100121.34;;;29.46;29.37
43147;BME280;28752;48.266;7.402;2022-07-06T08:25:54;100121.78;;;29.82;29.08
43147;BME280;28752;48.266;7.402;2022-07-06T08:28:19;100122.53;;;29.33;30.05
43147;BME280;28752;48.266;7.402;2022-07-06T08:30:45;100133.22;;;28.44;30.61
43147;BME280;28752;48.266;7.402;2022-07-06T08:33:10;100115.81;;;27.99;31.61
43147;BME280;28752;48.266;7.402;2022-07-06T08:35:35;100118.88;;;27.34;32.87
43147;BME280;28752;48.266;7.402;2022-07-06T08:38:01;100110.66;;;26.69;33.85
43147;BME280;28752;48.266;7.402;2022-07-06T08:40:29;100110.56;;;26.34;34.69
43147;BME280;28752;48.266;7.402;2022-07-06T08:42:57;100125.81;;;26.47;35.15
43147;BME280;28752;48.266;7.402;2022-07-06T08:45:25;100125.88;;;26.28;35.41
43147;BME280;28752;48.266;7.402;2022-07-06T08:47:51;100108.50;;;25.75;35.84
43147;BME280;28752;48.266;7.402;2022-07-06T08:50:19;100121.56;;;25.29;36.47
43147;BME280;28752;48.266;7.402;2022-07-06T08:52:47;100121.03;;;25.39;36.09
43147;BME280;28752;48.266;7.402;2022-07-06T08:55:12;100124.78;;;25.19;36.88
43147;BME280;28752;48.266;7.402;2022-07-06T08:57:38;100127.03;;;25.23;37.38
43147;BME280;28752;48.266;7.402;2022-07-06T09:00:08;100127.91;;;25.42;36.74
43147;BME280;28752;48.266;7.402;2022-07-06T09:02:35;100131.69;;;25.15;36.78
43147;BME280;28752;48.266;7.402;2022-07-06T09:05:02;100113.63;;;25.09;37.45
43147;BME280;28752;48.266;7.402;2022-07-06T09:07:29;100119.25;;;25.33;37.51
43147;BME280;28752;48.266;7.402;2022-07-06T09:09:58;100126.59;;;24.82;37.13
43147;BME280;28752;48.266;7.402;2022-07-06T09:12:27;100122.72;;;25.15;37.13
43147;BME280;28752;48.266;7.402;2022-07-06T09:14:58;100131.31;;;24.93;38.16
43147;BME280;28752;48.266;7.402;2022-07-06T09:17:31;100113.94;;;25.01;38.13
43147;BME280;28752;48.266;7.402;2022-07-06T09:19:57;100125.97;;;25.24;37.62
43147;BME280;28752;48.266;7.402;2022-07-06T09:22:27;100126.69;;;24.94;38.08
43147;BME280;28752;48.266;7.402;2022-07-06T09:24:53;100124.31;;;25.04;38.10
43147;BME280;28752;48.266;7.402;2022-07-06T09:27:25;100132.13;;;25.12;38.07
43147;BME280;28752;48.266;7.402;2022-07-06T09:29:51;100135.19;;;25.41;38.25
43147;BME280;28752;48.266;7.402;2022-07-06T09:32:20;100136.03;;;25.42;38.58
43147;BME280;28752;48.266;7.402;2022-07-06T09:34:46;100136.59;;;25.25;38.09
43147;BME280;28752;48.266;7.402;2022-07-06T09:37:12;100136.69;;;25.56;37.62
43147;BME280;28752;48.266;7.402;2022-07-06T09:39:38;100129.16;;;25.39;37.43
43147;BME280;28752;48.266;7.402;2022-07-06T09:42:05;100138.34;;;25.38;38.20
43147;BME280;28752;48.266;7.402;2022-07-06T09:44:36;100143.47;;;25.46;37.52
43147;BME280;28752;48.266;7.402;2022-07-06T09:47:11;100142.31;;;25.73;36.92
43147;BME280;28752;48.266;7.402;2022-07-06T09:49:38;100147.34;;;25.87;37.03
43147;BME280;28752;48.266;7.402;2022-07-06T09:52:09;100145.19;;;26.08;36.35
43147;BME280;28752;48.266;7.402;2022-07-06T09:54:36;100138.97;;;25.89;36.96
43147;BME280;28752;48.266;7.402;2022-07-06T09:57:03;100149.00;;;26.19;37.60
43147;BME280;28752;48.266;7.402;2022-07-06T09:59:31;100151.34;;;26.15;36.95
43147;BME280;28752;48.266;7.402;2022-07-06T10:01:59;100147.94;;;26.20;35.83
43147;BME280;28752;48.266;7.402;2022-07-06T10:04:27;100137.34;;;26.30;36.03
43147;BME280;28752;48.266;7.402;2022-07-06T10:06:55;100145.81;;;26.22;36.34
43147;BME280;28752;48.266;7.402;2022-07-06T10:09:23;100137.19;;;26.13;37.40
43147;BME280;28752;48.266;7.402;2022-07-06T10:14:19;100154.78;;;25.92;37.08
43147;BME280;28752;48.266;7.402;2022-07-06T10:16:47;100144.19;;;25.72;37.31
43147;BME280;28752;48.266;7.402;2022-07-06T10:19:15;100150.16;;;25.62;37.38
43147;BME280;28752;48.266;7.402;2022-07-06T10:21:41;100154.06;;;25.66;37.55
43147;BME280;28752;48.266;7.402;2022-07-06T10:24:07;100160.34;;;25.05;38.80
43147;BME280;28752;48.266;7.402;2022-07-06T10:26:34;100154.06;;;25.29;38.70
43147;BME280;28752;48.266;7.402;2022-07-06T10:29:01;100128.41;;;25.50;39.00
43147;BME280;28752;48.266;7.402;2022-07-06T10:31:28;100139.38;;;25.74;37.98
43147;BME280;28752;48.266;7.402;2022-07-06T10:33:55;100148.94;;;25.77;37.56
43147;BME280;28752;48.266;7.402;2022-07-06T10:36:22;100137.88;;;25.78;37.86
43147;BME280;28752;48.266;7.402;2022-07-06T10:38:50;100141.81;;;26.24;36.51
43147;BME280;28752;48.266;7.402;2022-07-06T10:41:16;100114.16;;;25.85;37.51
43147;BME280;28752;48.266;7.402;2022-07-06T10:43:43;100149.84;;;26.31;36.94
43147;BME280;28752;48.266;7.402;2022-07-06T10:46:11;100141.88;;;26.48;37.05
43147;BME280;28752;48.266;7.402;2022-07-06T10:48:39;100151.78;;;26.42;37.20
43147;BME280;28752;48.266;7.402;2022-07-06T10:51:04;100153.19;;;26.33;37.15
43147;BME280;28752;48.266;7.402;2022-07-06T10:53:36;100138.84;;;26.14;36.85
43147;BME280;28752;48.266;7.402;2022-07-06T10:56:04;100148.44;;;26.29;37.50
43147;BME280;28752;48.266;7.402;2022-07-06T11:01:12;100141.34;;;26.70;36.93
43147;BME280;28752;48.266;7.402;2022-07-06T11:03:48;100136.25;;;26.73;36.63
43147;BME280;28752;48.266;7.402;2022-07-06T11:06:22;100138.41;;;26.83;36.00
43147;BME280;28752;48.266;7.402;2022-07-06T11:09:07;100148.44;;;26.71;36.07
43147;BME280;28752;48.266;7.402;2022-07-06T11:19:13;100123.59;;;27.26;34.50
43147;BME280;28752;48.266;7.402;2022-07-06T11:21:55;100131.28;;;27.18;35.25
43147;BME280;28752;48.266;7.402;2022-07-06T11:24:29;100134.59;;;26.84;35.92
43147;BME280;28752;48.266;7.402;2022-07-06T11:26:57;100128.47;;;26.89;36.39
43147;BME280;28752;48.266;7.402;2022-07-06T11:29:24;100142.31;;;26.75;36.19
43147;BME280;28752;48.266;7.402;2022-07-06T11:31:55;100133.25;;;26.39;36.84
43147;BME280;28752;48.266;7.402;2022-07-06T11:34:25;100105.19;;;26.57;35.85
43147;BME280;28752;48.266;7.402;2022-07-06T11:37:07;100129.19;;;26.72;36.67
43147;BME280;28752;48.266;7.402;2022-07-06T11:39:34;100110.63;;;26.93;36.49
43147;BME280;28752;48.266;7.402;2022-07-06T11:42:00;100118.28;;;26.60;36.61
43147;BME280;28752;48.266;7.402;2022-07-06T11:44:26;100113.78;;;26.42;36.46
43147;BME280;28752;48.266;7.402;2022-07-06T11:46:52;100113.78;;;26.42;36.47
43147;BME280;28752;48.266;7.402;2022-07-06T11:49:20;100098.78;;;26.52;37.00
43147;BME280;28752;48.266;7.402;2022-07-06T11:51:46;100106.50;;;26.79;36.66
43147;BME280;28752;48.266;7.402;2022-07-06T11:54:17;100119.31;;;26.36;36.67
43147;BME280;28752;48.266;7.402;2022-07-06T11:56:57;100101.41;;;26.47;36.45
43147;BME280;28752;48.266;7.402;2022-07-06T11:59:28;100105.63;;;26.42;37.64
43147;BME280;28752;48.266;7.402;2022-07-06T12:02:14;100108.63;;;26.76;36.85
43147;BME280;28752;48.266;7.402;2022-07-06T12:04:42;100100.91;;;26.38;36.96
43147;BME280;28752;48.266;7.402;2022-07-06T12:07:13;100104.94;;;26.47;36.67
43147;BME280;28752;48.266;7.402;2022-07-06T12:09:41;100106.84;;;26.70;36.45
43147;BME280;28752;48.266;7.402;2022-07-06T12:12:08;100097.13;;;26.63;36.02
43147;BME280;28752;48.266;7.402;2022-07-06T12:14:36;100102.44;;;26.46;35.80
43147;BME280;28752;48.266;7.402;2022-07-06T12:17:07;100084.72;;;26.43;37.18
43147;BME280;28752;48.266;7.402;2022-07-06T12:19:33;100099.38;;;26.66;35.95
43147;BME280;28752;48.266;7.402;2022-07-06T12:21:59;100072.47;;;26.64;36.30
43147;BME280;28752;48.266;7.402;2022-07-06T12:24:28;100085.44;;;26.50;36.46
43147;BME280;28752;48.266;7.402;2022-07-06T12:26:56;100086.88;;;26.53;36.15
43147;BME280;28752;48.266;7.402;2022-07-06T12:29:22;100100.75;;;26.33;36.98
43147;BME280;28752;48.266;7.402;2022-07-06T12:36:47;100092.69;;;26.14;37.05
43147;BME280;28752;48.266;7.402;2022-07-06T12:39:17;100080.81;;;26.15;37.45
43147;BME280;28752;48.266;7.402;2022-07-06T12:41:46;100085.06;;;26.23;37.30
43147;BME280;28752;48.266;7.402;2022-07-06T12:44:12;100092.59;;;26.09;36.62
43147;BME280;28752;48.266;7.402;2022-07-06T12:46:39;100079.13;;;26.14;36.59
43147;BME280;28752;48.266;7.402;2022-07-06T12:49:22;100082.94;;;26.37;36.85
43147;BME280;28752;48.266;7.402;2022-07-06T12:51:59;100077.66;;;26.42;35.88
43147;BME280;28752;48.266;7.402;2022-07-06T12:54:28;100082.47;;;26.28;37.07
43147;BME280;28752;48.266;7.402;2022-07-06T12:59:55;100083.44;;;26.46;35.85
43147;BME280;28752;48.266;7.402;2022-07-06T13:02:26;100086.09;;;26.22;36.04
43147;BME280;28752;48.266;7.402;2022-07-06T13:04:59;100084.09;;;26.05;36.76
43147;BME280;28752;48.266;7.402;2022-07-06T13:07:26;100075.50;;;25.90;37.04
43147;BME280;28752;48.266;7.402;2022-07-06T13:09:53;100072.19;;;25.88;37.08